sensor_id;sensor_type;location;lat;lon;timestamp;pressure;altitude;pressure_sealevel;temperature;humidity
75668;BME280;64266;48.798;44.756;2023-12-29T00:01:03;101962.22;;;2.56;56.60
75668;BME280;64266;48.798;44.756;2023-12-29T00:06:06;101979.06;;;2.53;56.89
75668;BME280;64266;48.798;44.756;2023-12-29T00:11:19;101966.22;;;2.41;57.61
75668;BME280;64266;48.798;44.756;2023-12-29T00:16:22;101914.22;;;2.07;57.68
75668;BME280;64266;48.798;44.756;2023-12-29T00:21:25;101987.59;;;2.55;57.08
75668;BME280;64266;48.798;44.756;2023-12-29T00:26:27;101988.66;;;2.43;56.52
75668;BME280;64266;48.798;44.756;2023-12-29T00:31:32;101964.84;;;2.37;57.40
75668;BME280;64266;48.798;44.756;2023-12-29T00:36:37;101984.97;;;2.46;56.72
75668;BME280;64266;48.798;44.756;2023-12-29T00:41:40;101994.19;;;2.50;57.85
75668;BME280;64266;48.798;44.756;2023-12-29T00:46:46;101988.13;;;2.49;56.18
75668;BME280;64266;48.798;44.756;2023-12-29T00:51:50;101983.19;;;2.56;57.40
75668;BME280;64266;48.798;44.756;2023-12-29T00:56:53;101936.84;;;2.37;57.24
75668;BME280;64266;48.798;44.756;2023-12-29T01:01:56;101985.00;;;2.65;58.26
75668;BME280;64266;48.798;44.756;2023-12-29T01:06:59;101970.00;;;2.77;58.24
75668;BME280;64266;48.798;44.756;2023-12-29T01:12:02;101942.41;;;2.63;58.44
75668;BME280;64266;48.798;44.756;2023-12-29T01:17:05;101948.78;;;2.80;57.32
75668;BME280;64266;48.798;44.756;2023-12-29T01:22:10;101966.56;;;2.86;56.47
75668;BME280;64266;48.798;44.756;2023-12-29T01:27:13;101955.25;;;2.95;57.86
75668;BME280;64266;48.798;44.756;2023-12-29T01:32:16;101940.47;;;2.84;57.40
75668;BME280;64266;48.798;44.756;2023-12-29T01:37:19;101942.16;;;2.95;57.27
75668;BME280;64266;48.798;44.756;2023-12-29T01:42:22;101944.16;;;3.20;56.54
75668;BME280;64266;48.798;44.756;2023-12-29T01:47:25;101900.47;;;3.11;57.29
75668;BME280;64266;48.798;44.756;2023-12-29T01:52:28;101850.19;;;2.88;57.13
75668;BME280;64266;48.798;44.756;2023-12-29T01:57:31;101925.38;;;3.44;56.70
75668;BME280;64266;48.798;44.756;2023-12-29T02:02:38;101874.66;;;3.25;56.56
75668;BME280;64266;48.798;44.756;2023-12-29T02:07:41;101927.69;;;3.56;56.82
75668;BME280;64266;48.798;44.756;2023-12-29T02:12:47;101860.88;;;3.14;56.54
75668;BME280;64266;48.798;44.756;2023-12-29T02:17:59;101917.16;;;3.66;56.52
75668;BME280;64266;48.798;44.756;2023-12-29T02:23:03;101889.25;;;3.38;56.93
75668;BME280;64266;48.798;44.756;2023-12-29T02:28:26;101929.88;;;3.61;56.63
75668;BME280;64266;48.798;44.756;2023-12-29T02:33:31;101926.81;;;3.65;56.83
75668;BME280;64266;48.798;44.756;2023-12-29T02:38:38;101918.81;;;3.67;56.54
75668;BME280;64266;48.798;44.756;2023-12-29T02:43:42;101899.31;;;3.69;57.01
75668;BME280;64266;48.798;44.756;2023-12-29T02:48:45;101905.53;;;3.78;57.01
75668;BME280;64266;48.798;44.756;2023-12-29T02:53:48;101879.66;;;3.56;57.33
75668;BME280;64266;48.798;44.756;2023-12-29T02:58:53;101900.88;;;3.62;57.57
75668;BME280;64266;48.798;44.756;2023-12-29T03:03:55;101903.69;;;3.78;57.61
75668;BME280;64266;48.798;44.756;2023-12-29T03:08:59;101903.81;;;3.87;57.12
75668;BME280;64266;48.798;44.756;2023-12-29T03:14:03;101907.91;;;3.99;56.22
75668;BME280;64266;48.798;44.756;2023-12-29T03:19:06;101877.25;;;3.99;57.10
75668;BME280;64266;48.798;44.756;2023-12-29T03:24:09;101892.41;;;4.05;57.04
75668;BME280;64266;48.798;44.756;2023-12-29T03:29:13;101847.84;;;3.68;56.80
75668;BME280;64266;48.798;44.756;2023-12-29T03:34:17;101885.44;;;3.87;57.22
75668;BME280;64266;48.798;44.756;2023-12-29T03:39:20;101894.47;;;4.02;57.38
75668;BME280;64266;48.798;44.756;2023-12-29T03:44:23;101810.75;;;3.26;57.89
75668;BME280;64266;48.798;44.756;2023-12-29T03:49:26;101905.91;;;3.83;58.77
75668;BME280;64266;48.798;44.756;2023-12-29T03:54:30;101909.34;;;3.83;59.24
75668;BME280;64266;48.798;44.756;2023-12-29T03:59:36;101899.22;;;3.61;58.74
75668;BME280;64266;48.798;44.756;2023-12-29T04:04:39;101904.19;;;3.64;60.03
75668;BME280;64266;48.798;44.756;2023-12-29T04:09:43;101896.31;;;3.64;59.07
75668;BME280;64266;48.798;44.756;2023-12-29T04:14:46;101879.59;;;3.75;60.39
75668;BME280;64266;48.798;44.756;2023-12-29T04:19:51;101858.50;;;3.57;59.02
75668;BME280;64266;48.798;44.756;2023-12-29T04:24:55;101869.41;;;3.62;59.96
75668;BME280;64266;48.798;44.756;2023-12-29T04:29:58;101861.88;;;3.50;62.85
75668;BME280;64266;48.798;44.756;2023-12-29T04:35:01;101842.78;;;3.20;62.79
75668;BME280;64266;48.798;44.756;2023-12-29T04:40:06;101851.19;;;3.24;62.35
75668;BME280;64266;48.798;44.756;2023-12-29T04:45:10;101886.06;;;3.44;62.90
75668;BME280;64266;48.798;44.756;2023-12-29T04:50:13;101882.97;;;3.48;62.98
75668;BME280;64266;48.798;44.756;2023-12-29T04:55:17;101858.50;;;3.57;63.01
75668;BME280;64266;48.798;44.756;2023-12-29T05:00:21;101849.31;;;3.53;63.78
75668;BME280;64266;48.798;44.756;2023-12-29T05:05:24;101832.69;;;3.62;63.02
75668;BME280;64266;48.798;44.756;2023-12-29T05:10:27;101850.03;;;3.73;62.76
75668;BME280;64266;48.798;44.756;2023-12-29T05:15:29;101843.94;;;3.72;62.16
75668;BME280;64266;48.798;44.756;2023-12-29T05:20:34;101861.59;;;3.80;63.63
75668;BME280;64266;48.798;44.756;2023-12-29T05:25:37;101771.28;;;3.38;62.39
75668;BME280;64266;48.798;44.756;2023-12-29T05:30:40;101830.06;;;3.90;62.38
75668;BME280;64266;48.798;44.756;2023-12-29T05:35:43;101825.00;;;3.78;62.53
75668;BME280;64266;48.798;44.756;2023-12-29T05:40:46;101855.06;;;4.11;63.04
75668;BME280;64266;48.798;44.756;2023-12-29T05:45:50;101858.41;;;4.04;63.67
75668;BME280;64266;48.798;44.756;2023-12-29T05:50:53;101866.97;;;4.06;63.85
75668;BME280;64266;48.798;44.756;2023-12-29T05:55:56;101811.66;;;3.72;63.60
75668;BME280;64266;48.798;44.756;2023-12-29T06:00:59;101815.75;;;3.84;62.57
75668;BME280;64266;48.798;44.756;2023-12-29T06:06:04;101855.38;;;4.26;63.70
75668;BME280;64266;48.798;44.756;2023-12-29T06:11:08;101843.97;;;4.35;64.98
75668;BME280;64266;48.798;44.756;2023-12-29T06:16:21;101746.69;;;3.83;64.00
75668;BME280;64266;48.798;44.756;2023-12-29T06:21:25;101786.13;;;4.27;62.69
75668;BME280;64266;48.798;44.756;2023-12-29T06:26:27;101839.81;;;4.50;63.81
75668;BME280;64266;48.798;44.756;2023-12-29T06:31:30;101729.81;;;3.86;63.39
75668;BME280;64266;48.798;44.756;2023-12-29T06:36:33;101832.13;;;4.74;64.24
75668;BME280;64266;48.798;44.756;2023-12-29T06:41:38;101768.56;;;4.45;63.61
75668;BME280;64266;48.798;44.756;2023-12-29T06:46:41;101802.22;;;4.67;62.65
75668;BME280;64266;48.798;44.756;2023-12-29T06:51:44;101783.94;;;4.58;62.87
75668;BME280;64266;48.798;44.756;2023-12-29T06:56:47;101814.00;;;4.63;64.26
75668;BME280;64266;48.798;44.756;2023-12-29T07:01:51;101791.38;;;4.45;63.57
75668;BME280;64266;48.798;44.756;2023-12-29T07:06:54;101804.22;;;4.30;63.66
75668;BME280;64266;48.798;44.756;2023-12-29T07:11:57;101814.63;;;4.22;65.08
75668;BME280;64266;48.798;44.756;2023-12-29T07:17:02;101817.03;;;4.33;64.64
75668;BME280;64266;48.798;44.756;2023-12-29T07:22:05;101834.75;;;4.49;63.78
75668;BME280;64266;48.798;44.756;2023-12-29T07:27:09;101830.91;;;4.61;64.02
75668;BME280;64266;48.798;44.756;2023-12-29T07:32:12;101811.91;;;4.49;64.90
75668;BME280;64266;48.798;44.756;2023-12-29T07:37:15;101811.31;;;4.55;62.86
75668;BME280;64266;48.798;44.756;2023-12-29T07:42:18;101797.09;;;4.66;63.00
75668;BME280;64266;48.798;44.756;2023-12-29T07:47:23;101736.78;;;4.30;64.13
75668;BME280;64266;48.798;44.756;2023-12-29T07:52:26;101760.94;;;4.60;63.06
75668;BME280;64266;48.798;44.756;2023-12-29T07:57:43;101758.56;;;4.74;62.95
75668;BME280;64266;48.798;44.756;2023-12-29T08:02:46;101744.13;;;4.70;62.84
75668;BME280;64266;48.798;44.756;2023-12-29T08:07:49;101737.56;;;4.74;61.49
75668;BME280;64266;48.798;44.756;2023-12-29T08:12:53;101730.25;;;4.60;61.47
75668;BME280;64266;48.798;44.756;2023-12-29T08:17:56;101705.44;;;4.55;63.11
75668;BME280;64266;48.798;44.756;2023-12-29T08:23:02;101706.25;;;4.55;62.66
75668;BME280;64266;48.798;44.756;2023-12-29T08:28:05;101690.53;;;4.63;64.14
75668;BME280;64266;48.798;44.756;2023-12-29T08:33:08;101673.28;;;4.35;64.30
75668;BME280;64266;48.798;44.756;2023-12-29T08:38:10;101662.56;;;4.28;65.57
75668;BME280;64266;48.798;44.756;2023-12-29T08:43:15;101643.19;;;4.21;66.99
75668;BME280;64266;48.798;44.756;2023-12-29T08:48:21;101631.88;;;4.21;68.58
75668;BME280;64266;48.798;44.756;2023-12-29T08:53:26;101601.53;;;4.26;67.24
75668;BME280;64266;48.798;44.756;2023-12-29T08:58:31;101581.31;;;4.19;67.82
75668;BME280;64266;48.798;44.756;2023-12-29T09:03:34;101609.69;;;4.49;67.74
75668;BME280;64266;48.798;44.756;2023-12-29T09:08:37;101600.84;;;4.50;67.28
75668;BME280;64266;48.798;44.756;2023-12-29T09:13:42;101526.88;;;4.21;67.13
75668;BME280;64266;48.798;44.756;2023-12-29T09:18:46;101586.94;;;4.66;66.62
75668;BME280;64266;48.798;44.756;2023-12-29T09:23:49;101584.34;;;4.74;67.08
75668;BME280;64266;48.798;44.756;2023-12-29T09:28:53;101521.09;;;4.59;66.28
75668;BME280;64266;48.798;44.756;2023-12-29T09:33:56;101562.72;;;4.88;67.78
75668;BME280;64266;48.798;44.756;2023-12-29T09:39:00;101538.56;;;4.92;66.90
75668;BME280;64266;48.798;44.756;2023-12-29T09:44:03;101531.38;;;4.95;66.87
75668;BME280;64266;48.798;44.756;2023-12-29T09:49:10;101505.56;;;4.90;67.14
75668;BME280;64266;48.798;44.756;2023-12-29T09:54:14;101459.09;;;4.90;68.60
75668;BME280;64266;48.798;44.756;2023-12-29T09:59:18;101486.06;;;5.17;67.41
75668;BME280;64266;48.798;44.756;2023-12-29T10:04:21;101475.50;;;5.33;67.93
75668;BME280;64266;48.798;44.756;2023-12-29T10:09:25;101457.78;;;5.35;66.94
75668;BME280;64266;48.798;44.756;2023-12-29T10:14:46;101463.84;;;5.43;68.10
75668;BME280;64266;48.798;44.756;2023-12-29T10:20:05;101457.41;;;5.54;67.61
75668;BME280;64266;48.798;44.756;2023-12-29T10:25:12;101431.78;;;5.48;67.40
75668;BME280;64266;48.798;44.756;2023-12-29T10:30:16;101437.66;;;5.74;66.78
75668;BME280;64266;48.798;44.756;2023-12-29T10:35:30;101389.69;;;5.48;66.71
75668;BME280;64266;48.798;44.756;2023-12-29T10:40:36;101423.31;;;5.77;67.37
75668;BME280;64266;48.798;44.756;2023-12-29T10:45:39;101396.50;;;5.81;67.39
75668;BME280;64266;48.798;44.756;2023-12-29T10:50:44;101399.78;;;5.83;67.52
75668;BME280;64266;48.798;44.756;2023-12-29T10:55:47;101410.31;;;5.83;68.05
75668;BME280;64266;48.798;44.756;2023-12-29T11:00:51;101411.66;;;5.87;68.40
75668;BME280;64266;48.798;44.756;2023-12-29T11:05:59;101350.59;;;5.84;67.75
75668;BME280;64266;48.798;44.756;2023-12-29T11:11:05;101391.81;;;6.08;68.41
75668;BME280;64266;48.798;44.756;2023-12-29T11:16:08;101382.44;;;6.05;68.91
75668;BME280;64266;48.798;44.756;2023-12-29T11:21:12;101372.47;;;5.92;68.60
75668;BME280;64266;48.798;44.756;2023-12-29T11:26:16;101386.19;;;6.11;69.53
75668;BME280;64266;48.798;44.756;2023-12-29T11:31:22;101380.56;;;6.14;68.88
75668;BME280;64266;48.798;44.756;2023-12-29T11:36:30;101348.72;;;6.00;69.93
75668;BME280;64266;48.798;44.756;2023-12-29T11:41:45;101356.81;;;6.22;70.17
75668;BME280;64266;48.798;44.756;2023-12-29T11:46:51;101305.84;;;5.84;69.77
75668;BME280;64266;48.798;44.756;2023-12-29T11:51:55;101336.72;;;5.98;69.26
75668;BME280;64266;48.798;44.756;2023-12-29T11:56:59;101345.03;;;6.10;69.85
75668;BME280;64266;48.798;44.756;2023-12-29T12:02:05;101314.72;;;5.91;70.67
75668;BME280;64266;48.798;44.756;2023-12-29T12:12:43;101372.94;;;6.27;69.43
75668;BME280;64266;48.798;44.756;2023-12-29T12:17:50;101386.59;;;6.30;71.01
75668;BME280;64266;48.798;44.756;2023-12-29T12:28:01;101315.31;;;6.01;70.40
75668;BME280;64266;48.798;44.756;2023-12-29T12:33:08;101386.91;;;6.58;70.79
75668;BME280;64266;48.798;44.756;2023-12-29T12:38:17;101365.69;;;6.51;69.06
75668;BME280;64266;48.798;44.756;2023-12-29T12:43:25;101379.97;;;6.57;69.23
75668;BME280;64266;48.798;44.756;2023-12-29T12:48:49;101389.63;;;6.65;71.73
75668;BME280;64266;48.798;44.756;2023-12-29T12:53:53;101377.00;;;6.60;71.51
75668;BME280;64266;48.798;44.756;2023-12-29T12:58:57;101384.13;;;6.51;71.84
75668;BME280;64266;48.798;44.756;2023-12-29T13:04:00;101386.69;;;6.60;71.07
75668;BME280;64266;48.798;44.756;2023-12-29T13:09:05;101362.41;;;6.49;71.52
75668;BME280;64266;48.798;44.756;2023-12-29T13:14:24;101376.34;;;6.58;70.44
75668;BME280;64266;48.798;44.756;2023-12-29T13:19:28;101350.13;;;6.42;71.46
75668;BME280;64266;48.798;44.756;2023-12-29T13:24:33;101377.97;;;6.59;72.40
75668;BME280;64266;48.798;44.756;2023-12-29T13:29:39;101380.03;;;6.49;71.93
75668;BME280;64266;48.798;44.756;2023-12-29T13:35:10;101369.78;;;6.54;71.70
75668;BME280;64266;48.798;44.756;2023-12-29T13:40:26;101342.91;;;6.36;73.21
75668;BME280;64266;48.798;44.756;2023-12-29T13:45:32;101348.78;;;6.46;72.18
75668;BME280;64266;48.798;44.756;2023-12-29T13:50:35;101388.63;;;6.66;72.26
75668;BME280;64266;48.798;44.756;2023-12-29T13:55:38;101334.47;;;6.40;72.31
75668;BME280;64266;48.798;44.756;2023-12-29T14:00:45;101363.19;;;6.58;72.19
75668;BME280;64266;48.798;44.756;2023-12-29T14:05:59;101382.50;;;6.73;72.52
75668;BME280;64266;48.798;44.756;2023-12-29T14:11:08;101380.56;;;6.67;72.73
75668;BME280;64266;48.798;44.756;2023-12-29T14:16:12;101393.16;;;6.80;71.91
75668;BME280;64266;48.798;44.756;2023-12-29T14:21:28;101384.69;;;6.84;73.07
75668;BME280;64266;48.798;44.756;2023-12-29T14:26:31;101390.91;;;6.91;72.56
75668;BME280;64266;48.798;44.756;2023-12-29T14:31:39;101399.38;;;7.01;71.90
75668;BME280;64266;48.798;44.756;2023-12-29T14:36:42;101338.84;;;6.71;71.65
75668;BME280;64266;48.798;44.756;2023-12-29T14:41:46;101403.88;;;7.16;72.96
75668;BME280;64266;48.798;44.756;2023-12-29T14:46:49;101416.47;;;7.43;71.13
75668;BME280;64266;48.798;44.756;2023-12-29T14:51:52;101370.22;;;7.18;69.92
75668;BME280;64266;48.798;44.756;2023-12-29T14:56:56;101415.75;;;7.49;70.05
75668;BME280;64266;48.798;44.756;2023-12-29T15:02:10;101402.81;;;7.54;70.20
75668;BME280;64266;48.798;44.756;2023-12-29T15:07:15;101412.66;;;7.60;70.54
75668;BME280;64266;48.798;44.756;2023-12-29T15:12:18;101408.75;;;7.56;69.46
75668;BME280;64266;48.798;44.756;2023-12-29T15:17:22;101390.44;;;7.40;69.22
75668;BME280;64266;48.798;44.756;2023-12-29T15:22:24;101409.13;;;7.53;70.35
75668;BME280;64266;48.798;44.756;2023-12-29T15:27:28;101375.69;;;7.31;69.78
75668;BME280;64266;48.798;44.756;2023-12-29T15:32:32;101362.78;;;7.21;70.08
75668;BME280;64266;48.798;44.756;2023-12-29T15:37:35;101399.09;;;7.48;70.85
75668;BME280;64266;48.798;44.756;2023-12-29T15:42:39;101411.19;;;7.57;70.36
75668;BME280;64266;48.798;44.756;2023-12-29T15:47:42;101364.06;;;7.25;69.54
75668;BME280;64266;48.798;44.756;2023-12-29T15:52:49;101424.84;;;7.46;70.17
75668;BME280;64266;48.798;44.756;2023-12-29T15:57:53;101383.41;;;7.32;71.24
75668;BME280;64266;48.798;44.756;2023-12-29T16:02:56;101422.22;;;7.46;71.27
75668;BME280;64266;48.798;44.756;2023-12-29T16:07:59;101414.47;;;7.45;71.29
75668;BME280;64266;48.798;44.756;2023-12-29T16:13:03;101398.47;;;7.46;70.64
75668;BME280;64266;48.798;44.756;2023-12-29T16:18:08;101303.81;;;6.99;71.07
75668;BME280;64266;48.798;44.756;2023-12-29T16:23:12;101402.91;;;7.60;69.56
75668;BME280;64266;48.798;44.756;2023-12-29T16:28:14;101385.25;;;7.61;70.68
75668;BME280;64266;48.798;44.756;2023-12-29T16:33:17;101407.19;;;7.76;70.28
75668;BME280;64266;48.798;44.756;2023-12-29T16:38:20;101340.94;;;7.42;70.74
75668;BME280;64266;48.798;44.756;2023-12-29T16:43:27;101333.13;;;7.19;70.23
75668;BME280;64266;48.798;44.756;2023-12-29T16:48:30;101380.44;;;7.50;70.30
75668;BME280;64266;48.798;44.756;2023-12-29T16:53:34;101382.06;;;7.36;70.07
75668;BME280;64266;48.798;44.756;2023-12-29T16:58:39;101384.28;;;7.47;70.77
75668;BME280;64266;48.798;44.756;2023-12-29T17:03:45;101389.44;;;7.55;71.17
75668;BME280;64266;48.798;44.756;2023-12-29T17:08:51;101304.38;;;7.09;70.32
75668;BME280;64266;48.798;44.756;2023-12-29T17:13:54;101366.22;;;7.51;70.80
75668;BME280;64266;48.798;44.756;2023-12-29T17:18:58;101373.16;;;7.52;71.23
75668;BME280;64266;48.798;44.756;2023-12-29T17:24:01;101351.84;;;7.39;69.93
75668;BME280;64266;48.798;44.756;2023-12-29T17:29:04;101402.44;;;7.57;70.72
75668;BME280;64266;48.798;44.756;2023-12-29T17:34:07;101398.34;;;7.54;70.14
75668;BME280;64266;48.798;44.756;2023-12-29T17:39:11;101410.56;;;7.55;71.09
75668;BME280;64266;48.798;44.756;2023-12-29T17:44:15;101348.84;;;7.27;72.12
75668;BME280;64266;48.798;44.756;2023-12-29T17:49:18;101386.72;;;7.63;70.32
75668;BME280;64266;48.798;44.756;2023-12-29T17:54:25;101366.22;;;7.51;69.92
75668;BME280;64266;48.798;44.756;2023-12-29T17:59:29;101383.72;;;7.67;70.70
75668;BME280;64266;48.798;44.756;2023-12-29T18:04:33;101398.72;;;7.66;70.57
75668;BME280;64266;48.798;44.756;2023-12-29T18:09:38;101400.19;;;7.69;71.10
75668;BME280;64266;48.798;44.756;2023-12-29T18:14:42;101391.25;;;7.70;70.86
75668;BME280;64266;48.798;44.756;2023-12-29T18:19:46;101410.13;;;7.81;70.21
75668;BME280;64266;48.798;44.756;2023-12-29T18:24:50;101395.00;;;7.75;71.39
75668;BME280;64266;48.798;44.756;2023-12-29T18:29:53;101387.63;;;7.71;71.28
75668;BME280;64266;48.798;44.756;2023-12-29T18:34:55;101390.34;;;7.77;70.82
75668;BME280;64266;48.798;44.756;2023-12-29T18:39:59;101401.47;;;7.87;71.75
75668;BME280;64266;48.798;44.756;2023-12-29T18:45:04;101357.78;;;7.55;71.65
75668;BME280;64266;48.798;44.756;2023-12-29T18:50:08;101396.09;;;7.81;71.26
75668;BME280;64266;48.798;44.756;2023-12-29T18:55:12;101387.72;;;7.77;71.85
75668;BME280;64266;48.798;44.756;2023-12-29T19:00:15;101375.63;;;7.68;71.71
75668;BME280;64266;48.798;44.756;2023-12-29T19:05:19;101393.81;;;7.78;71.18
75668;BME280;64266;48.798;44.756;2023-12-29T19:10:24;101403.34;;;7.79;72.55
75668;BME280;64266;48.798;44.756;2023-12-29T19:15:28;101385.53;;;7.66;71.07
75668;BME280;64266;48.798;44.756;2023-12-29T19:20:32;101401.75;;;7.78;71.74
75668;BME280;64266;48.798;44.756;2023-12-29T19:25:35;101372.97;;;7.68;70.18
75668;BME280;64266;48.798;44.756;2023-12-29T19:30:38;101389.50;;;7.91;70.79
75668;BME280;64266;48.798;44.756;2023-12-29T19:35:42;101409.03;;;7.90;70.12
75668;BME280;64266;48.798;44.756;2023-12-29T19:40:45;101392.34;;;7.90;70.02
75668;BME280;64266;48.798;44.756;2023-12-29T19:45:48;101373.44;;;7.72;69.62
75668;BME280;64266;48.798;44.756;2023-12-29T19:50:51;101407.53;;;8.02;70.01
75668;BME280;64266;48.798;44.756;2023-12-29T19:55:55;101409.63;;;8.07;68.75
75668;BME280;64266;48.798;44.756;2023-12-29T20:01:00;101385.97;;;7.99;69.35
75668;BME280;64266;48.798;44.756;2023-12-29T20:06:04;101415.59;;;8.15;67.59
75668;BME280;64266;48.798;44.756;2023-12-29T20:11:08;101382.41;;;7.92;67.95
75668;BME280;64266;48.798;44.756;2023-12-29T20:16:21;101429.09;;;8.06;68.71
75668;BME280;64266;48.798;44.756;2023-12-29T20:21:26;101437.03;;;8.06;67.45
75668;BME280;64266;48.798;44.756;2023-12-29T20:26:29;101430.66;;;8.15;67.66
75668;BME280;64266;48.798;44.756;2023-12-29T20:31:32;101417.47;;;8.00;67.51
75668;BME280;64266;48.798;44.756;2023-12-29T20:36:36;101420.19;;;8.07;66.65
75668;BME280;64266;48.798;44.756;2023-12-29T20:41:41;101438.38;;;8.16;66.52
75668;BME280;64266;48.798;44.756;2023-12-29T20:46:44;101429.84;;;8.14;67.33
75668;BME280;64266;48.798;44.756;2023-12-29T20:51:46;101396.31;;;8.00;67.78
75668;BME280;64266;48.798;44.756;2023-12-29T20:56:51;101443.41;;;8.11;68.09
75668;BME280;64266;48.798;44.756;2023-12-29T21:01:55;101418.91;;;8.17;67.62
75668;BME280;64266;48.798;44.756;2023-12-29T21:06:59;101421.53;;;8.17;67.15
75668;BME280;64266;48.798;44.756;2023-12-29T21:12:02;101435.75;;;8.31;66.59
75668;BME280;64266;48.798;44.756;2023-12-29T21:17:06;101422.78;;;8.22;66.25
75668;BME280;64266;48.798;44.756;2023-12-29T21:22:10;101409.63;;;8.07;67.09
75668;BME280;64266;48.798;44.756;2023-12-29T21:27:13;101404.03;;;8.16;66.67
75668;BME280;64266;48.798;44.756;2023-12-29T21:32:16;101416.25;;;8.17;67.74
75668;BME280;64266;48.798;44.756;2023-12-29T21:37:19;101429.47;;;8.17;67.64
75668;BME280;64266;48.798;44.756;2023-12-29T21:42:22;101408.25;;;8.11;66.43
75668;BME280;64266;48.798;44.756;2023-12-29T21:47:25;101408.53;;;8.01;68.19
75668;BME280;64266;48.798;44.756;2023-12-29T21:52:28;101422.78;;;8.22;67.94
75668;BME280;64266;48.798;44.756;2023-12-29T21:57:30;101377.91;;;8.07;68.57
75668;BME280;64266;48.798;44.756;2023-12-29T22:02:33;101426.19;;;8.30;67.10
75668;BME280;64266;48.798;44.756;2023-12-29T22:07:36;101409.53;;;8.30;67.20
75668;BME280;64266;48.798;44.756;2023-12-29T22:12:39;101413.03;;;8.37;67.22
75668;BME280;64266;48.798;44.756;2023-12-29T22:17:42;101377.63;;;8.16;66.77
75668;BME280;64266;48.798;44.756;2023-12-29T22:22:45;101368.56;;;8.04;68.20
75668;BME280;64266;48.798;44.756;2023-12-29T22:27:50;101405.94;;;8.23;68.20
75668;BME280;64266;48.798;44.756;2023-12-29T22:32:53;101391.19;;;8.28;69.50
75668;BME280;64266;48.798;44.756;2023-12-29T22:37:57;101390.91;;;8.38;68.07
75668;BME280;64266;48.798;44.756;2023-12-29T22:43:00;101376.03;;;8.37;66.88
75668;BME280;64266;48.798;44.756;2023-12-29T22:48:03;101363.56;;;8.31;66.97
75668;BME280;64266;48.798;44.756;2023-12-29T22:53:07;101327.03;;;7.98;67.16
75668;BME280;64266;48.798;44.756;2023-12-29T22:58:12;101284.91;;;7.90;66.91
75668;BME280;64266;48.798;44.756;2023-12-29T23:03:15;101380.16;;;8.25;67.51
75668;BME280;64266;48.798;44.756;2023-12-29T23:08:19;101340.50;;;8.03;67.64
75668;BME280;64266;48.798;44.756;2023-12-29T23:13:22;101381.91;;;8.32;68.11
75668;BME280;64266;48.798;44.756;2023-12-29T23:18:26;101379.81;;;8.28;67.03
75668;BME280;64266;48.798;44.756;2023-12-29T23:23:29;101399.19;;;8.35;68.08
75668;BME280;64266;48.798;44.756;2023-12-29T23:28:32;101407.44;;;8.10;67.16
75668;BME280;64266;48.798;44.756;2023-12-29T23:33:36;101386.59;;;8.01;68.93
75668;BME280;64266;48.798;44.756;2023-12-29T23:38:40;101415.56;;;7.94;67.93
75668;BME280;64266;48.798;44.756;2023-12-29T23:43:43;101379.25;;;7.67;66.05
75668;BME280;64266;48.798;44.756;2023-12-29T23:48:51;101418.09;;;7.88;66.13
75668;BME280;64266;48.798;44.756;2023-12-29T23:53:54;101426.78;;;7.96;63.66
75668;BME280;64266;48.798;44.756;2023-12-29T23:58:57;101418.13;;;7.73;63.30
